createdAt,value
2022-09-15T00:00:29.414Z,49.93
2022-09-15T00:02:05.301Z,49.49
2022-09-15T00:03:46.143Z,49.50
2022-09-15T00:05:20.644Z,49.51
2022-09-15T00:06:53.704Z,48.90
2022-09-15T00:08:26.903Z,48.24
2022-09-15T00:09:59.809Z,48.38
2022-09-15T00:11:33.809Z,47.96
2022-09-15T00:13:06.762Z,47.65
2022-09-15T00:14:39.990Z,47.37
2022-09-15T00:16:15.267Z,47.31
2022-09-15T00:17:50.354Z,46.44
2022-09-15T00:19:23.129Z,46.30
2022-09-15T00:20:56.317Z,45.84
2022-09-15T00:22:29.167Z,45.86
2022-09-15T00:24:02.529Z,45.79
2022-09-15T00:25:35.302Z,45.68
2022-09-15T00:27:08.813Z,45.35
2022-09-15T00:28:41.748Z,45.69
2022-09-15T00:30:14.792Z,45.85
2022-09-15T00:31:47.600Z,45.83
2022-09-15T00:33:21.545Z,46.35
2022-09-15T00:34:54.329Z,46.32
2022-09-15T00:36:28.700Z,46.63
2022-09-15T00:38:01.619Z,46.47
2022-09-15T00:39:34.924Z,46.27
2022-09-15T00:41:08.848Z,46.26
2022-09-15T00:42:41.934Z,46.00
2022-09-15T00:44:14.828Z,45.88
2022-09-15T00:45:48.839Z,45.80
2022-09-15T00:47:24.234Z,45.74
2022-09-15T00:49:00.642Z,46.06
2022-09-15T00:50:34.613Z,45.68
2022-09-15T00:52:12.741Z,45.38
2022-09-15T00:53:47.191Z,45.49
2022-09-15T00:55:26.268Z,45.31
2022-09-15T00:57:00.661Z,45.33
2022-09-15T00:58:37.269Z,44.80
2022-09-15T01:00:12.057Z,44.62
2022-09-15T01:01:47.881Z,44.64
2022-09-15T01:03:21.022Z,44.80
2022-09-15T01:04:58.363Z,44.42
2022-09-15T01:06:36.775Z,44.03
2022-09-15T01:08:12.223Z,43.85
2022-09-15T01:09:55.850Z,43.94
2022-09-15T01:11:29.529Z,43.75
2022-09-15T01:13:03.806Z,43.62
2022-09-15T01:14:36.759Z,43.78
2022-09-15T01:16:12.465Z,43.62
2022-09-15T01:18:04.383Z,43.48
2022-09-15T01:19:57.349Z,43.48
2022-09-15T01:21:45.486Z,43.12
2022-09-15T01:23:33.408Z,43.02
2022-09-15T01:25:25.603Z,42.94
2022-09-15T01:27:18.513Z,42.98
2022-09-15T01:29:15.119Z,43.07
2022-09-15T01:31:00.945Z,43.27
2022-09-15T01:32:58.276Z,43.51
2022-09-15T01:34:35.092Z,43.59
2022-09-15T01:36:14.954Z,43.98
2022-09-15T01:37:53.282Z,44.09
2022-09-15T01:39:29.116Z,43.94
2022-09-15T01:41:08.026Z,43.97
2022-09-15T01:42:43.658Z,44.09
2022-09-15T01:44:26.893Z,44.30
2022-09-15T01:46:01.106Z,44.44
2022-09-15T01:47:34.763Z,44.50
2022-09-15T01:49:10.310Z,44.47
2022-09-15T01:50:44.967Z,44.56
2022-09-15T01:52:19.719Z,44.84
2022-09-15T01:53:53.874Z,44.62
2022-09-15T01:55:39.712Z,44.55
2022-09-15T01:57:12.637Z,44.56
2022-09-15T01:58:45.824Z,44.67
2022-09-15T02:00:18.931Z,44.67
2022-09-15T02:01:57.934Z,44.67
2022-09-15T02:03:35.471Z,44.97
2022-09-15T02:05:08.386Z,44.80
2022-09-15T02:06:43.477Z,44.43
2022-09-15T02:08:37.386Z,44.18
2022-09-15T02:10:36.493Z,44.00
2022-09-15T02:12:12.849Z,43.90
2022-09-15T02:14:04.322Z,43.64
2022-09-15T02:15:48.778Z,43.23
2022-09-15T02:17:22.715Z,43.18
2022-09-15T02:18:59.008Z,42.94
2022-09-15T02:20:33.481Z,42.61
2022-09-15T02:22:09.214Z,42.43
2022-09-15T02:23:45.595Z,42.27
2022-09-15T02:25:22.002Z,42.05
2022-09-15T02:26:56.045Z,41.70
2022-09-15T02:28:31.517Z,41.48
2022-09-15T02:30:07.115Z,41.37
2022-09-15T02:31:40.625Z,41.39
2022-09-15T02:33:20.335Z,41.00
2022-09-15T02:34:55.721Z,41.43
2022-09-15T02:36:29.328Z,41.06
2022-09-15T02:38:03.497Z,41.08
2022-09-15T02:39:39.825Z,41.37
2022-09-15T02:41:14.104Z,41.41
2022-09-15T02:42:57.374Z,40.94
2022-09-15T02:44:33.254Z,41.11
2022-09-15T02:46:06.597Z,41.12
2022-09-15T02:47:39.424Z,40.75
2022-09-15T02:49:12.274Z,40.85
2022-09-15T02:50:45.062Z,40.80
2022-09-15T02:52:18.018Z,40.59
2022-09-15T02:53:51.444Z,40.44
2022-09-15T02:55:29.407Z,40.56
2022-09-15T02:57:02.487Z,40.66
2022-09-15T02:58:35.851Z,40.68
2022-09-15T03:00:21.717Z,40.56
2022-09-15T03:01:54.674Z,40.52
2022-09-15T03:03:27.407Z,40.51
2022-09-15T03:05:00.564Z,40.55
2022-09-15T03:06:36.567Z,40.71
2022-09-15T03:08:09.376Z,40.67
2022-09-15T03:09:42.393Z,40.52
2022-09-15T03:11:15.986Z,40.52
2022-09-15T03:12:50.500Z,40.55
2022-09-15T03:14:23.421Z,40.46
2022-09-15T03:15:56.262Z,40.20
2022-09-15T03:17:29.435Z,40.06
2022-09-15T03:19:02.910Z,40.23
2022-09-15T03:20:35.885Z,39.72
2022-09-15T03:22:09.759Z,39.73
2022-09-15T03:23:42.888Z,39.61
2022-09-15T03:25:16.513Z,39.69
2022-09-15T03:26:49.646Z,39.83
2022-09-15T03:28:22.512Z,39.70
2022-09-15T03:29:55.497Z,39.26
2022-09-15T03:31:28.453Z,39.11
2022-09-15T03:33:01.380Z,39.49
2022-09-15T03:34:34.366Z,39.47
2022-09-15T03:36:07.646Z,39.54
2022-09-15T03:37:40.781Z,39.47
2022-09-15T03:39:45.871Z,39.52
2022-09-15T03:41:19.553Z,39.60
2022-09-15T03:42:52.287Z,39.49
2022-09-15T03:44:25.177Z,39.45
2022-09-15T03:45:58.548Z,39.43
2022-09-15T03:47:32.873Z,39.41
2022-09-15T03:49:06.011Z,39.54
2022-09-15T03:50:40.029Z,39.71
2022-09-15T03:52:12.770Z,39.37
2022-09-15T03:53:45.854Z,39.97
2022-09-15T03:55:18.875Z,39.84
2022-09-15T03:56:52.346Z,39.81
2022-09-15T03:58:30.072Z,39.78
2022-09-15T04:00:05.148Z,39.71
2022-09-15T04:01:38.300Z,39.34
2022-09-15T04:03:11.190Z,39.01
2022-09-15T04:04:43.978Z,39.36
2022-09-15T04:06:17.188Z,39.28
2022-09-15T04:07:50.642Z,39.58
2022-09-15T04:09:23.737Z,39.61
2022-09-15T04:10:56.655Z,39.20
2022-09-15T04:12:30.671Z,38.89
2022-09-15T04:14:03.509Z,38.62
2022-09-15T04:15:36.500Z,38.75
2022-09-15T04:17:11.060Z,38.02
2022-09-15T04:18:44.413Z,37.90
2022-09-15T04:20:17.698Z,37.99
2022-09-15T04:21:50.468Z,38.01
2022-09-15T04:23:23.213Z,38.10
2022-09-15T04:24:56.499Z,38.14
2022-09-15T04:26:32.631Z,38.45
2022-09-15T04:28:05.398Z,38.45
2022-09-15T04:29:38.261Z,38.57
2022-09-15T04:31:12.596Z,38.24
2022-09-15T04:32:45.616Z,38.16
2022-09-15T04:34:18.726Z,38.04
2022-09-15T04:35:58.234Z,38.27
2022-09-15T04:37:32.012Z,38.24
2022-09-15T04:39:06.953Z,38.26
2022-09-15T04:40:39.669Z,38.48
2022-09-15T04:42:12.534Z,38.25
2022-09-15T04:43:46.022Z,38.22
2022-09-15T04:45:18.899Z,38.30
2022-09-15T04:46:51.802Z,38.05
2022-09-15T04:48:25.327Z,38.06
2022-09-15T04:49:58.657Z,38.13
2022-09-15T04:51:31.554Z,37.74
2022-09-15T04:53:04.446Z,37.53
2022-09-15T04:54:37.680Z,37.38
2022-09-15T04:56:20.732Z,37.37
2022-09-15T04:57:53.608Z,37.25
2022-09-15T04:59:26.611Z,37.03
2022-09-15T05:00:59.740Z,37.05
2022-09-15T05:02:33.849Z,37.05
2022-09-15T05:04:06.680Z,37.00
2022-09-15T05:05:39.884Z,36.91
2022-09-15T05:07:12.764Z,36.93
2022-09-15T05:08:54.092Z,36.47
2022-09-15T05:10:27.224Z,36.20
2022-09-15T05:12:00.047Z,36.02
2022-09-15T05:13:33.944Z,36.23
2022-09-15T05:15:07.472Z,36.08
2022-09-15T05:16:41.205Z,35.86
2022-09-15T05:18:14.547Z,35.60
2022-09-15T05:19:47.284Z,35.90
2022-09-15T05:21:21.215Z,35.34
2022-09-15T05:22:54.016Z,35.45
2022-09-15T05:24:26.957Z,35.72
2022-09-15T05:26:01.649Z,35.38
2022-09-15T05:27:35.053Z,35.47
2022-09-15T05:29:08.223Z,35.54
2022-09-15T05:30:44.215Z,35.48
2022-09-15T05:32:17.675Z,35.42
2022-09-15T05:33:51.657Z,35.32
2022-09-15T05:35:24.728Z,35.43
2022-09-15T05:36:57.854Z,35.47
2022-09-15T05:38:31.469Z,35.21
2022-09-15T05:40:08.491Z,35.38
2022-09-15T05:41:41.697Z,35.13
2022-09-15T05:43:15.128Z,34.95
2022-09-15T05:44:48.076Z,34.91
2022-09-15T05:46:21.367Z,34.81
2022-09-15T05:47:54.332Z,34.86
2022-09-15T05:49:28.906Z,35.17
2022-09-15T05:51:03.540Z,34.92
2022-09-15T05:52:36.741Z,34.50
2022-09-15T05:54:09.751Z,34.57
2022-09-15T05:55:43.013Z,34.89
2022-09-15T05:57:15.993Z,35.11
2022-09-15T05:58:49.302Z,34.63
2022-09-15T06:00:22.242Z,34.83
2022-09-15T06:01:55.210Z,35.02
2022-09-15T06:03:30.955Z,35.13
2022-09-15T06:05:04.686Z,35.46
2022-09-15T06:06:37.526Z,35.46
2022-09-15T06:08:10.959Z,34.80
2022-09-15T06:09:44.520Z,34.85
2022-09-15T06:11:18.917Z,34.59
2022-09-15T06:12:58.830Z,34.83
2022-09-15T06:14:32.088Z,34.59
2022-09-15T06:16:06.902Z,34.77
2022-09-15T06:17:40.071Z,34.56
2022-09-15T06:19:12.977Z,34.54
2022-09-15T06:20:46.031Z,34.27
2022-09-15T06:22:19.430Z,34.18
2022-09-15T06:24:00.000Z,34.42
2022-09-15T06:25:33.918Z,34.61
2022-09-15T06:27:06.875Z,34.40
2022-09-15T06:28:40.467Z,34.34
2022-09-15T06:30:14.010Z,34.35
2022-09-15T06:31:47.306Z,34.65
2022-09-15T06:33:20.450Z,34.31
2022-09-15T06:34:53.512Z,34.03
2022-09-15T06:36:28.326Z,34.00
2022-09-15T06:38:01.476Z,34.00
2022-09-15T06:39:35.421Z,34.08
2022-09-15T06:41:09.128Z,34.05
2022-09-15T06:42:42.201Z,33.61
2022-09-15T06:44:17.375Z,33.47
2022-09-15T06:45:50.702Z,33.54
2022-09-15T06:47:24.354Z,33.35
2022-09-15T06:48:58.130Z,33.07
2022-09-15T06:50:31.438Z,32.88
2022-09-15T06:52:07.670Z,33.13
2022-09-15T06:53:41.121Z,32.88
2022-09-15T06:55:14.938Z,32.72
2022-09-15T06:56:47.815Z,33.40
2022-09-15T06:58:20.688Z,33.46
2022-09-15T06:59:56.489Z,33.28
2022-09-15T07:01:32.968Z,32.95
2022-09-15T07:03:06.011Z,33.05
2022-09-15T07:04:39.029Z,33.55
2022-09-15T07:06:12.897Z,33.19
2022-09-15T07:07:47.202Z,33.37
2022-09-15T07:09:20.605Z,33.28
2022-09-15T07:10:53.790Z,33.30
2022-09-15T07:12:26.526Z,33.05
2022-09-15T07:13:59.727Z,33.19
2022-09-15T07:15:32.933Z,32.95
2022-09-15T07:17:06.099Z,32.70
2022-09-15T07:18:43.047Z,32.68
2022-09-15T07:20:16.927Z,32.63
2022-09-15T07:21:51.279Z,32.54
2022-09-15T07:23:24.374Z,32.39
2022-09-15T07:24:57.258Z,32.28
2022-09-15T07:26:30.778Z,32.40
2022-09-15T07:28:03.906Z,32.63
2022-09-15T07:29:38.584Z,32.71
2022-09-15T07:31:13.177Z,32.42
2022-09-15T07:32:46.276Z,32.18
2022-09-15T07:34:19.271Z,32.15
2022-09-15T07:35:52.361Z,31.55
2022-09-15T07:37:25.131Z,31.25
2022-09-15T07:38:58.503Z,31.09
2022-09-15T07:40:32.631Z,30.75
2022-09-15T07:42:05.622Z,30.32
2022-09-15T07:43:39.315Z,30.36
2022-09-15T07:45:12.645Z,30.39
2022-09-15T07:46:45.951Z,29.99
2022-09-15T07:48:24.409Z,30.11
2022-09-15T07:49:59.093Z,30.12
2022-09-15T07:51:32.221Z,30.04
2022-09-15T07:53:05.166Z,30.36
2022-09-15T07:54:38.295Z,30.73
2022-09-15T07:56:11.229Z,30.44
2022-09-15T07:57:44.400Z,30.71
2022-09-15T07:59:17.353Z,30.17
2022-09-15T08:00:50.941Z,30.29
2022-09-15T08:02:24.268Z,30.38
2022-09-15T08:03:57.821Z,30.13
2022-09-15T08:05:31.210Z,30.36
2022-09-15T08:07:05.818Z,30.33
2022-09-15T08:08:39.488Z,30.15
2022-09-15T08:10:12.529Z,30.15
2022-09-15T08:11:45.592Z,30.30
2022-09-15T08:13:18.520Z,30.66
2022-09-15T08:14:51.466Z,30.63
2022-09-15T08:16:25.086Z,30.70
2022-09-15T08:17:58.524Z,30.62
2022-09-15T08:19:32.289Z,30.59
2022-09-15T08:21:09.755Z,30.60
2022-09-15T08:22:43.079Z,30.51
2022-09-15T08:24:17.112Z,30.66
2022-09-15T08:25:51.911Z,30.81
2022-09-15T08:27:25.508Z,30.83
2022-09-15T08:28:59.184Z,30.89
2022-09-15T08:30:32.575Z,30.75
2022-09-15T08:32:05.502Z,30.63
2022-09-15T08:33:43.172Z,30.37
2022-09-15T08:35:18.035Z,30.35
2022-09-15T08:36:51.445Z,30.49
2022-09-15T08:38:24.247Z,30.47
2022-09-15T08:39:57.302Z,29.98
2022-09-15T08:41:32.877Z,29.91
2022-09-15T08:43:13.537Z,29.45
2022-09-15T08:45:00.811Z,29.50
2022-09-15T08:46:43.670Z,29.48
2022-09-15T08:48:18.045Z,29.34
2022-09-15T08:49:59.423Z,28.90
2022-09-15T08:51:46.774Z,28.71
2022-09-15T08:53:25.762Z,28.51
2022-09-15T08:55:01.663Z,28.94
2022-09-15T08:56:35.435Z,28.70
2022-09-15T08:58:15.217Z,28.99
2022-09-15T08:59:48.310Z,28.91
2022-09-15T09:01:37.800Z,28.66
2022-09-15T09:03:20.566Z,29.12
2022-09-15T09:05:06.288Z,28.67
2022-09-15T09:06:41.926Z,28.37
2022-09-15T09:08:14.739Z,28.14
2022-09-15T09:09:55.764Z,27.93
2022-09-15T09:11:29.143Z,27.91
2022-09-15T09:13:35.401Z,27.79
2022-09-15T09:15:09.008Z,28.14
2022-09-15T09:16:42.309Z,28.15
2022-09-15T09:18:35.254Z,28.32
2022-09-15T09:20:21.295Z,28.38
2022-09-15T09:21:56.486Z,28.42
2022-09-15T09:23:32.475Z,28.81
2022-09-15T09:25:25.757Z,28.58
2022-09-15T09:26:59.899Z,28.74
2022-09-15T09:28:36.329Z,28.65
2022-09-15T09:30:21.053Z,28.92
2022-09-15T09:31:55.346Z,28.94
2022-09-15T09:33:38.694Z,28.76
2022-09-15T09:35:18.237Z,28.68
2022-09-15T09:36:57.701Z,28.05
2022-09-15T09:38:32.549Z,27.94
2022-09-15T09:40:05.758Z,27.82
2022-09-15T09:41:39.426Z,27.80
2022-09-15T09:43:12.303Z,27.87
2022-09-15T09:44:46.129Z,27.30
2022-09-15T09:46:19.936Z,27.32
2022-09-15T09:47:54.374Z,27.48
2022-09-15T09:49:32.010Z,27.77
2022-09-15T09:51:05.200Z,27.88
2022-09-15T09:52:39.260Z,27.75
2022-09-15T09:54:13.511Z,28.12
2022-09-15T09:55:46.665Z,28.01
2022-09-15T09:57:30.063Z,27.69
2022-09-15T09:59:03.864Z,27.85
2022-09-15T10:00:38.119Z,27.89
2022-09-15T10:02:11.205Z,27.68
2022-09-15T10:03:45.801Z,27.56
2022-09-15T10:05:20.055Z,27.62
2022-09-15T10:06:56.353Z,27.36
2022-09-15T10:08:29.528Z,26.91
2022-09-15T10:10:02.570Z,27.09
2022-09-15T10:12:05.142Z,27.26
2022-09-15T10:13:51.034Z,27.02
2022-09-15T10:15:25.193Z,27.14
2022-09-15T10:16:58.951Z,27.06
2022-09-15T10:18:34.224Z,27.12
2022-09-15T10:20:21.254Z,26.70
2022-09-15T10:21:55.021Z,27.04
2022-09-15T10:23:33.395Z,27.12
2022-09-15T10:25:35.689Z,27.58
2022-09-15T10:27:26.167Z,27.65
2022-09-15T10:29:10.673Z,27.92
2022-09-15T10:31:02.534Z,28.25
2022-09-15T10:32:35.395Z,28.30
2022-09-15T10:34:31.094Z,28.48
2022-09-15T10:36:07.939Z,28.38
2022-09-15T10:37:59.740Z,28.44
2022-09-15T10:39:48.728Z,28.60
2022-09-15T10:41:28.038Z,28.55
2022-09-15T10:43:10.982Z,28.53
2022-09-15T10:44:59.339Z,28.40
2022-09-15T10:46:48.972Z,28.17
2022-09-15T10:48:31.070Z,28.08
2022-09-15T10:50:08.122Z,28.11
2022-09-15T10:51:57.410Z,28.41
2022-09-15T10:53:33.272Z,28.44
2022-09-15T10:55:42.530Z,28.53
2022-09-15T10:59:18.256Z,28.56
2022-09-15T11:01:00.127Z,28.62
2022-09-15T11:03:02.668Z,28.76
2022-09-15T11:04:41.634Z,28.60
2022-09-15T11:06:27.587Z,28.67
2022-09-15T11:08:19.572Z,28.71
2022-09-15T11:10:01.844Z,28.93
2022-09-15T11:11:54.887Z,28.71
2022-09-15T11:13:33.260Z,28.82
2022-09-15T11:15:06.221Z,28.93
2022-09-15T11:16:57.561Z,29.05
2022-09-15T11:18:36.651Z,29.16
2022-09-15T11:20:22.103Z,29.01
2022-09-15T11:22:01.566Z,29.03
2022-09-15T11:23:54.887Z,29.04
2022-09-15T11:25:34.155Z,28.91
2022-09-15T11:27:07.526Z,29.06
2022-09-15T11:28:43.951Z,29.26
2022-09-15T11:30:16.990Z,29.07
2022-09-15T11:31:56.352Z,29.26
2022-09-15T11:33:52.760Z,29.29
2022-09-15T11:35:33.074Z,29.07
2022-09-15T11:37:07.904Z,28.94
2022-09-15T11:39:00.493Z,29.10
2022-09-15T11:40:42.421Z,29.37
2022-09-15T11:42:20.632Z,29.44
2022-09-15T11:44:08.267Z,29.53
2022-09-15T11:45:44.795Z,29.43
2022-09-15T11:47:31.369Z,29.54
2022-09-15T11:49:08.033Z,29.62
2022-09-15T11:50:45.595Z,29.84
2022-09-15T11:52:32.592Z,29.61
2022-09-15T11:54:14.346Z,29.63
2022-09-15T11:55:56.957Z,29.59
2022-09-15T11:57:37.254Z,29.58
2022-09-15T11:59:15.753Z,29.71
2022-09-15T12:01:11.328Z,29.76
2022-09-15T12:02:47.041Z,29.98
2022-09-15T12:04:26.192Z,29.88
2022-09-15T12:06:07.282Z,29.84
2022-09-15T12:07:46.419Z,29.98
2022-09-15T12:09:20.352Z,29.66
2022-09-15T12:10:55.763Z,29.58
2022-09-15T12:12:30.703Z,29.84
2022-09-15T12:14:05.768Z,29.64
2022-09-15T12:15:38.687Z,29.61
2022-09-15T12:17:21.904Z,29.43
2022-09-15T12:19:04.126Z,29.57
2022-09-15T12:20:49.127Z,29.23
2022-09-15T12:22:29.326Z,29.29
2022-09-15T12:24:08.387Z,29.40
2022-09-15T12:25:41.432Z,29.17
2022-09-15T12:27:16.370Z,29.23
2022-09-15T12:28:57.681Z,28.92
2022-09-15T12:30:42.838Z,28.92
2022-09-15T12:32:24.526Z,28.88
2022-09-15T12:33:57.351Z,28.92
2022-09-15T12:35:32.371Z,28.86
2022-09-15T12:37:13.131Z,28.82
2022-09-15T12:38:49.932Z,28.82
2022-09-15T12:40:26.645Z,28.50
2022-09-15T12:42:06.909Z,28.48
2022-09-15T12:43:39.711Z,28.12
2022-09-15T12:45:26.340Z,28.37
2022-09-15T12:47:04.404Z,28.62
2022-09-15T12:48:38.177Z,28.71
2022-09-15T12:50:17.416Z,28.67
2022-09-15T12:51:51.460Z,28.39
2022-09-15T12:53:27.518Z,28.41
2022-09-15T12:55:03.032Z,28.49
2022-09-15T12:56:36.818Z,28.68
2022-09-15T12:58:18.820Z,28.86
2022-09-15T13:00:11.650Z,29.08
2022-09-15T13:01:49.306Z,28.75
2022-09-15T13:05:36.925Z,28.78
2022-09-15T13:07:15.796Z,28.71
2022-09-15T13:09:06.847Z,28.98
2022-09-15T13:10:43.278Z,28.93
2022-09-15T13:12:18.053Z,28.96
2022-09-15T13:14:12.508Z,28.92
2022-09-15T13:15:47.192Z,28.99
2022-09-15T13:17:22.917Z,28.82
2022-09-15T13:19:06.458Z,28.97
2022-09-15T13:20:44.086Z,29.19
2022-09-15T13:22:27.710Z,29.04
2022-09-15T13:24:03.160Z,29.27
2022-09-15T13:25:36.566Z,29.43
2022-09-15T13:27:10.473Z,29.40
2022-09-15T13:28:43.809Z,29.12
2022-09-15T13:30:37.465Z,29.36
2022-09-15T13:32:19.126Z,29.57
2022-09-15T13:36:10.082Z,29.64
2022-09-15T13:38:19.990Z,29.57
2022-09-15T13:40:07.452Z,29.58
2022-09-15T13:41:52.507Z,29.70
2022-09-15T13:43:35.315Z,29.81
2022-09-15T13:45:17.223Z,29.96
2022-09-15T13:47:08.349Z,29.85
2022-09-15T13:48:48.318Z,29.94
2022-09-15T13:50:24.291Z,30.06
2022-09-15T13:52:00.667Z,30.00
2022-09-15T13:53:33.627Z,30.10
2022-09-15T13:55:34.157Z,30.21
2022-09-15T13:57:08.500Z,30.29
2022-09-15T13:59:05.298Z,30.25
2022-09-15T14:00:48.215Z,30.36
2022-09-15T14:02:21.219Z,30.35
2022-09-15T14:04:07.507Z,30.39
2022-09-15T14:05:42.471Z,30.56
2022-09-15T14:07:22.420Z,30.58
2022-09-15T14:08:57.898Z,30.66
2022-09-15T14:10:33.409Z,30.72
2022-09-15T14:12:10.019Z,30.77
2022-09-15T14:13:45.334Z,30.92
2022-09-15T14:15:21.856Z,31.04
2022-09-15T14:16:55.716Z,31.16
2022-09-15T14:18:29.827Z,31.05
2022-09-15T14:20:04.724Z,31.22
2022-09-15T14:21:47.804Z,31.54
2022-09-15T14:23:20.328Z,31.48
2022-09-15T14:24:53.539Z,31.50
2022-09-15T14:26:28.395Z,31.48
2022-09-15T14:28:01.842Z,31.70
2022-09-15T14:29:39.339Z,31.75
2022-09-15T14:31:12.376Z,31.74
2022-09-15T14:32:47.082Z,31.83
2022-09-15T14:34:26.935Z,31.80
2022-09-15T14:35:59.669Z,31.93
2022-09-15T14:37:32.864Z,31.99
2022-09-15T14:39:24.196Z,32.14
2022-09-15T14:40:57.395Z,32.24
2022-09-15T14:42:32.792Z,32.41
2022-09-15T14:45:55.918Z,32.57
2022-09-15T14:46:15.026Z,32.55
2022-09-15T14:47:48.058Z,32.71
2022-09-15T14:49:20.861Z,32.92
2022-09-15T14:51:04.510Z,32.96
2022-09-15T14:52:41.909Z,32.98
2022-09-15T14:54:26.423Z,32.53
2022-09-15T14:56:07.041Z,32.67
2022-09-15T14:59:37.402Z,32.71
2022-09-15T15:01:14.385Z,32.82
2022-09-15T15:02:48.611Z,32.97
2022-09-15T15:04:26.702Z,32.92
2022-09-15T15:06:03.041Z,33.04
2022-09-15T15:07:45.908Z,32.71
2022-09-15T15:09:33.544Z,32.89
2022-09-15T15:11:08.229Z,32.47
2022-09-15T15:12:42.583Z,32.59
2022-09-15T15:14:16.771Z,32.68
2022-09-15T15:15:49.586Z,32.68
2022-09-15T15:17:27.750Z,32.88
2022-09-15T15:19:00.280Z,32.84
2022-09-15T15:20:33.231Z,32.75
2022-09-15T15:22:16.536Z,32.76
2022-09-15T15:23:49.363Z,32.85
2022-09-15T15:25:22.268Z,33.02
2022-09-15T15:26:55.329Z,33.07
2022-09-15T15:28:29.812Z,33.18
2022-09-15T15:30:22.211Z,33.13
2022-09-15T15:32:05.095Z,33.40
2022-09-15T15:33:46.607Z,33.34
2022-09-15T15:35:20.868Z,33.49
2022-09-15T15:37:02.401Z,33.54
2022-09-15T15:38:38.370Z,33.65
2022-09-15T15:40:20.397Z,33.76
2022-09-15T15:42:02.335Z,33.87
2022-09-15T15:43:38.577Z,33.94
2022-09-15T15:45:35.278Z,33.92
2022-09-15T15:47:42.046Z,34.03
2022-09-15T15:49:25.617Z,34.08
2022-09-15T15:51:10.397Z,34.03
2022-09-15T15:52:51.506Z,33.90
2022-09-15T15:54:28.743Z,33.89
2022-09-15T15:56:02.207Z,33.75
2022-09-15T15:57:39.127Z,33.83
2022-09-15T15:59:16.158Z,34.10
2022-09-15T16:00:54.081Z,33.78
2022-09-15T16:02:27.425Z,33.79
2022-09-15T16:04:00.755Z,33.70
2022-09-15T16:05:34.366Z,33.81
2022-09-15T16:07:08.572Z,33.73
2022-09-15T16:08:43.142Z,33.64
2022-09-15T16:10:19.160Z,33.47
2022-09-15T16:14:46.593Z,33.15
2022-09-15T16:16:21.553Z,33.07
2022-09-15T16:17:54.296Z,32.95
2022-09-15T16:19:27.000Z,32.45
2022-09-15T16:20:59.641Z,32.12
2022-09-15T16:22:32.685Z,31.87
2022-09-15T16:24:06.133Z,31.61
2022-09-15T16:25:41.645Z,31.85
2022-09-15T16:27:15.713Z,31.30
2022-09-15T16:28:48.755Z,31.55
2022-09-15T16:30:21.472Z,31.59
2022-09-15T16:31:54.116Z,30.79
2022-09-15T16:33:38.150Z,30.06
2022-09-15T16:35:36.583Z,29.85
2022-09-15T16:37:09.258Z,29.85
2022-09-15T16:38:42.928Z,29.76
2022-09-15T16:40:18.058Z,29.63
2022-09-15T16:41:50.893Z,29.34
2022-09-15T16:43:23.567Z,29.04
2022-09-15T16:44:56.146Z,29.16
2022-09-15T16:46:28.950Z,29.05
2022-09-15T16:48:02.255Z,28.96
2022-09-15T16:49:37.649Z,28.93
2022-09-15T16:51:28.809Z,29.07
2022-09-15T16:53:04.507Z,28.95
2022-09-15T16:54:37.232Z,28.73
2022-09-15T16:56:14.009Z,28.61
2022-09-15T16:57:46.633Z,28.74
2022-09-15T16:59:19.792Z,28.65
2022-09-15T17:00:53.065Z,28.67
2022-09-15T17:02:25.746Z,28.64
2022-09-15T17:03:58.488Z,28.73
2022-09-15T17:05:44.006Z,28.66
2022-09-15T17:07:18.361Z,28.45
2022-09-15T17:08:51.400Z,28.68
2022-09-15T17:10:24.097Z,28.65
2022-09-15T17:11:57.210Z,28.53
2022-09-15T17:13:31.844Z,28.55
2022-09-15T17:15:17.132Z,28.57
2022-09-15T17:16:53.020Z,28.50
2022-09-15T17:18:26.308Z,28.50
2022-09-15T17:19:58.826Z,28.57
2022-09-15T17:21:31.638Z,28.73
2022-09-15T17:23:17.221Z,28.52
2022-09-15T17:24:53.131Z,28.46
2022-09-15T17:26:31.052Z,28.35
2022-09-15T17:28:03.997Z,28.39
2022-09-15T17:29:36.739Z,28.41
2022-09-15T17:31:14.706Z,28.50
2022-09-15T17:32:47.651Z,28.46
2022-09-15T17:34:20.529Z,28.39
2022-09-15T17:35:53.597Z,28.32
2022-09-15T17:37:26.395Z,28.32
2022-09-15T17:38:59.280Z,28.47
2022-09-15T17:40:32.099Z,28.50
2022-09-15T17:42:04.909Z,28.69
2022-09-15T17:43:37.986Z,28.58
2022-09-15T17:45:21.281Z,28.62
2022-09-15T17:46:54.119Z,28.55
2022-09-15T17:48:26.821Z,28.71
2022-09-15T17:49:59.649Z,28.89
2022-09-15T17:51:32.395Z,28.92
2022-09-15T17:53:15.393Z,29.27
2022-09-15T17:54:47.909Z,29.91
2022-09-15T17:56:21.420Z,30.70
2022-09-15T17:57:54.816Z,30.79
2022-09-15T17:59:27.446Z,31.07
2022-09-15T18:01:00.437Z,31.17
2022-09-15T18:02:33.336Z,31.27
2022-09-15T18:04:05.917Z,31.45
2022-09-15T18:05:38.575Z,31.46
2022-09-15T18:07:11.522Z,31.54
2022-09-15T18:08:44.414Z,31.52
2022-09-15T18:10:17.783Z,31.26
2022-09-15T18:11:50.543Z,31.07
2022-09-15T18:13:24.227Z,30.82
2022-09-15T18:14:57.029Z,30.33
2022-09-15T18:16:29.578Z,30.21
2022-09-15T18:18:04.360Z,30.06
2022-09-15T18:19:36.981Z,29.76
2022-09-15T18:21:10.987Z,29.32
2022-09-15T18:22:44.223Z,29.06
2022-09-15T18:24:17.457Z,29.01
2022-09-15T18:25:50.321Z,28.74
2022-09-15T18:27:23.260Z,28.89
2022-09-15T18:28:59.797Z,28.89
2022-09-15T18:30:38.686Z,28.80
2022-09-15T18:32:11.315Z,28.74
2022-09-15T18:33:44.194Z,28.68
2022-09-15T18:35:18.630Z,28.67
2022-09-15T18:36:51.468Z,28.80
2022-09-15T18:38:24.383Z,28.74
2022-09-15T18:39:57.452Z,28.74
2022-09-15T18:41:30.209Z,28.92
2022-09-15T18:43:02.870Z,28.86
2022-09-15T18:44:35.516Z,28.92
2022-09-15T18:46:08.391Z,28.75
2022-09-15T18:47:42.854Z,28.75
2022-09-15T18:49:15.560Z,28.93
2022-09-15T18:50:48.284Z,28.86
2022-09-15T18:52:21.236Z,29.04
2022-09-15T18:53:54.603Z,29.10
2022-09-15T18:55:27.395Z,29.29
2022-09-15T18:57:00.003Z,29.27
2022-09-15T18:58:32.665Z,29.37
2022-09-15T19:00:08.113Z,29.55
2022-09-15T19:01:40.837Z,29.76
2022-09-15T19:03:14.490Z,29.86
2022-09-15T19:04:47.343Z,30.03
2022-09-15T19:06:20.461Z,30.08
2022-09-15T19:07:53.206Z,30.21
2022-09-15T19:09:25.877Z,30.20
2022-09-15T19:10:59.502Z,30.12
2022-09-15T19:12:33.143Z,30.15
2022-09-15T19:14:05.799Z,30.20
2022-09-15T19:15:42.049Z,30.29
2022-09-15T19:17:14.863Z,30.29
2022-09-15T19:18:51.042Z,30.27
2022-09-15T19:20:23.834Z,30.32
2022-09-15T19:21:56.450Z,30.45
2022-09-15T19:23:29.101Z,30.27
2022-09-15T19:25:01.819Z,30.31
2022-09-15T19:26:36.075Z,30.30
2022-09-15T19:28:09.096Z,30.27
2022-09-15T19:29:41.959Z,30.16
2022-09-15T19:31:15.033Z,30.32
2022-09-15T19:32:47.929Z,30.36
2022-09-15T19:34:20.833Z,30.43
2022-09-15T19:36:10.898Z,30.20
2022-09-15T19:37:46.867Z,30.26
2022-09-15T19:39:19.482Z,30.42
2022-09-15T19:40:52.325Z,30.28
2022-09-15T19:42:25.032Z,30.26
2022-09-15T19:44:00.739Z,30.29
2022-09-15T19:45:33.364Z,30.21
2022-09-15T19:47:06.545Z,30.23
2022-09-15T19:48:41.353Z,30.21
2022-09-15T19:50:18.388Z,30.36
2022-09-15T19:51:55.375Z,30.17
2022-09-15T19:53:28.050Z,30.26
2022-09-15T19:55:00.667Z,30.34
2022-09-15T19:56:33.387Z,30.27
2022-09-15T19:58:06.163Z,30.29
2022-09-15T19:59:38.759Z,30.11
2022-09-15T20:01:11.502Z,29.94
2022-09-15T20:02:47.490Z,30.04
2022-09-15T20:04:20.110Z,29.97
2022-09-15T20:05:53.586Z,29.90
2022-09-15T20:07:26.560Z,29.91
2022-09-15T20:08:59.630Z,29.92
2022-09-15T20:10:32.296Z,30.12
2022-09-15T20:12:05.253Z,30.15
2022-09-15T20:13:41.586Z,29.96
2022-09-15T20:15:14.683Z,30.08
2022-09-15T20:16:47.365Z,30.10
2022-09-15T20:18:20.264Z,30.16
2022-09-15T20:19:52.896Z,30.19
2022-09-15T20:21:48.594Z,30.16
2022-09-15T20:23:20.783Z,30.29
2022-09-15T20:24:53.400Z,30.27
2022-09-15T20:26:26.399Z,30.33
2022-09-15T20:27:59.367Z,30.29
2022-09-15T20:29:31.986Z,30.27
2022-09-15T20:31:12.507Z,30.22
2022-09-15T20:32:45.755Z,30.35
2022-09-15T20:34:19.423Z,30.32
2022-09-15T20:35:53.233Z,30.48
2022-09-15T20:37:26.086Z,30.49
2022-09-15T20:38:59.273Z,30.43
2022-09-15T20:40:32.020Z,30.41
2022-09-15T20:42:04.860Z,30.54
2022-09-15T20:43:38.071Z,30.65
2022-09-15T20:45:11.040Z,30.57
2022-09-15T20:46:43.828Z,30.37
2022-09-15T20:48:16.469Z,30.29
2022-09-15T20:49:49.134Z,30.29
2022-09-15T20:51:26.428Z,30.33
2022-09-15T20:52:59.173Z,30.16
2022-09-15T20:54:32.122Z,30.36